Time;durP1;ratioP1;P1;durP2;ratioP2;P2;SDS_P1;SDS_P2;PMS_P1;PMS_P2;Temp;Humidity;BMP_temperature;BMP_pressure;BME280_temperature;BME280_humidity;BME280_pressure;Samples;Min_cycle;Max_cycle;Signal;HPM_P1;HPM_P2
2023/01/21 00:02:04;;;;;;;62.58;25.73;;;-2.20;99.90;;;;;;5008851;28;20056;-59
2023/01/21 00:04:33;;;;;;;64.93;24.65;;;-2.20;99.90;;;;;;5012978;28;20030;-58
2023/01/21 00:06:59;;;;;;;82.32;28.23;;;-2.20;99.90;;;;;;5001709;28;20027;-59
2023/01/21 00:09:24;;;;;;;91.40;26.75;;;-2.20;99.90;;;;;;5005320;28;20109;-60
2023/01/21 00:11:50;;;;;;;75.00;26.95;;;-2.20;99.90;;;;;;5001000;28;20025;-58
2023/01/21 00:14:15;;;;;;;65.65;23.98;;;-2.20;99.90;;;;;;5002639;28;20141;-58
2023/01/21 00:16:41;;;;;;;63.88;23.88;;;-2.30;99.90;;;;;;5007017;28;20018;-59
2023/01/21 00:19:07;;;;;;;71.95;26.17;;;-2.30;99.90;;;;;;5009541;28;20022;-59
2023/01/21 00:21:32;;;;;;;72.75;24.33;;;-2.30;99.90;;;;;;5009233;28;20037;-58
2023/01/21 00:23:58;;;;;;;66.38;24.90;;;-2.30;99.90;;;;;;5008444;28;20049;-58
2023/01/21 00:26:23;;;;;;;58.85;22.60;;;-2.30;99.90;;;;;;5005764;28;20509;-58
2023/01/21 00:28:49;;;;;;;63.15;22.88;;;-2.30;99.90;;;;;;5007821;28;20034;-58
2023/01/21 00:31:15;;;;;;;74.72;25.48;;;-2.30;99.90;;;;;;5007258;28;20385;-59
2023/01/21 00:33:40;;;;;;;68.18;24.02;;;-2.30;99.90;;;;;;5015394;28;20030;-58
2023/01/21 00:36:12;;;;;;;66.57;26.33;;;-2.40;99.90;;;;;;5011561;28;20030;-58
2023/01/21 00:38:38;;;;;;;69.60;25.27;;;-2.40;99.90;;;;;;5010191;28;20676;-58
2023/01/21 00:41:06;;;;;;;65.82;24.35;;;-2.40;99.90;;;;;;5011323;28;20121;-57
2023/01/21 00:43:32;;;;;;;59.53;23.90;;;-2.40;99.90;;;;;;5012243;28;20100;-59
2023/01/21 00:45:58;;;;;;;71.90;24.63;;;-2.40;99.90;;;;;;5012716;28;20081;-59
2023/01/21 00:48:24;;;;;;;67.22;24.65;;;-2.40;99.90;;;;;;5013199;28;20374;-59
2023/01/21 00:50:50;;;;;;;65.45;24.23;;;-2.40;99.90;;;;;;5009852;28;20079;-59
2023/01/21 00:53:17;;;;;;;82.15;27.58;;;-2.40;99.90;;;;;;5009456;28;20030;-59
2023/01/21 00:55:42;;;;;;;75.68;27.60;;;-2.30;99.90;;;;;;5008182;28;20390;-59
2023/01/21 00:58:08;;;;;;;74.88;24.83;;;-2.20;99.90;;;;;;5015098;28;20034;-60
2023/01/21 01:00:34;;;;;;;71.75;26.20;;;-2.20;99.90;;;;;;5014374;28;20499;-59
2023/01/21 01:02:59;;;;;;;73.30;27.23;;;-2.20;99.90;;;;;;5006516;28;20511;-60
2023/01/21 01:05:25;;;;;;;74.00;27.30;;;-2.20;99.90;;;;;;5004961;28;21214;-59
2023/01/21 01:07:51;;;;;;;84.10;26.88;;;-2.20;99.90;;;;;;5005674;28;20025;-58
2023/01/21 01:10:16;;;;;;;69.28;27.85;;;-2.10;99.90;;;;;;5006919;28;20032;-59
2023/01/21 01:12:42;;;;;;;68.63;25.90;;;-2.10;99.90;;;;;;5011406;28;20040;-59
2023/01/21 01:15:09;;;;;;;80.22;28.13;;;-2.10;99.90;;;;;;5009318;28;20033;-59
2023/01/21 01:17:35;;;;;;;80.80;27.77;;;-2.20;99.90;;;;;;5011129;28;20037;-58
2023/01/21 01:20:00;;;;;;;73.47;26.90;;;-2.20;99.90;;;;;;5014272;28;20541;-58
2023/01/21 01:22:26;;;;;;;82.95;28.38;;;-2.20;99.90;;;;;;5008703;28;20112;-57
2023/01/21 01:24:52;;;;;;;79.47;28.25;;;-2.20;99.90;;;;;;5009800;28;20493;-59
2023/01/21 01:27:17;;;;;;;76.85;28.95;;;-2.20;99.90;;;;;;5016141;28;20048;-57
2023/01/21 01:29:43;;;;;;;90.80;31.00;;;-2.20;99.90;;;;;;5014406;28;20026;-58
2023/01/21 01:32:09;;;;;;;81.88;29.27;;;-2.20;99.90;;;;;;5006506;28;20053;-59
2023/01/21 01:34:35;;;;;;;80.60;29.02;;;-2.20;99.90;;;;;;5010304;28;20022;-59
2023/01/21 01:37:02;;;;;;;79.72;27.45;;;-2.20;99.90;;;;;;5010520;28;20019;-58
2023/01/21 01:39:28;;;;;;;76.05;27.77;;;-2.30;99.90;;;;;;5006073;28;20386;-59
2023/01/21 01:41:53;;;;;;;74.88;28.02;;;-2.30;99.90;;;;;;5008438;28;20037;-58
2023/01/21 01:44:57;;;;;;;77.15;28.83;;;-2.30;99.90;;;;;;5006685;28;20026;-59
2023/01/21 01:47:36;;;;;;;79.93;28.23;;;-2.40;99.90;;;;;;5008995;28;20041;-60
2023/01/21 01:50:04;;;;;;;69.63;28.15;;;-2.30;99.90;;;;;;5000873;28;20035;-58
2023/01/21 01:52:30;;;;;;;73.88;27.95;;;-2.40;99.90;;;;;;5000907;28;20022;-59
2023/01/21 01:54:59;;;;;;;79.72;29.23;;;-2.40;99.90;;;;;;5003305;28;20374;-58
2023/01/21 01:57:30;;;;;;;77.72;27.67;;;-2.40;99.90;;;;;;5003744;28;20056;-59
2023/01/21 01:59:57;;;;;;;79.25;28.50;;;-2.40;99.90;;;;;;5004989;28;20022;-58
2023/01/21 02:02:22;;;;;;;66.55;26.98;;;-2.40;99.90;;;;;;5006208;28;20054;-57
2023/01/21 02:04:55;;;;;;;75.18;29.38;;;-2.50;99.90;;;;;;5013590;28;20524;-58
2023/01/21 02:07:23;;;;;;;77.82;27.52;;;-2.50;99.90;;;;;;5012996;28;20080;-57
2023/01/21 02:09:51;;;;;;;77.65;29.30;;;-2.50;99.90;;;;;;5010735;28;20041;-59
2023/01/21 02:12:17;;;;;;;79.63;28.67;;;-2.50;99.90;;;;;;5010427;28;20038;-59
2023/01/21 02:14:44;;;;;;;69.88;27.23;;;-2.50;99.90;;;;;;5013107;28;20091;-58
2023/01/21 02:17:35;;;;;;;79.90;29.35;;;-2.40;99.90;;;;;;5012946;28;20129;-59
2023/01/21 02:20:34;;;;;;;89.90;29.45;;;-2.40;99.90;;;;;;5012525;28;20041;-57
2023/01/21 02:23:15;;;;;;;96.93;36.55;;;-2.30;99.90;;;;;;5012071;28;20393;-58
2023/01/21 02:25:43;;;;;;;88.13;31.58;;;-2.30;99.90;;;;;;5007759;28;20045;-59
2023/01/21 02:28:44;;;;;;;86.53;30.50;;;-2.20;99.90;;;;;;5007592;28;20018;-58
2023/01/21 02:31:29;;;;;;;;;;;-2.20;99.90;;;;;;5006519;28;20516;-58
2023/01/21 02:34:09;;;;;;;89.47;29.80;;;-2.20;99.90;;;;;;5009017;28;19909;-59
2023/01/21 02:37:02;;;;;;;86.28;30.35;;;-2.20;99.90;;;;;;5012728;28;20022;-59
2023/01/21 02:40:05;;;;;;;89.70;33.95;;;-2.20;99.90;;;;;;5014555;28;20032;-58
2023/01/21 02:43:09;;;;;;;104.03;34.20;;;-2.20;99.90;;;;;;5008306;28;20037;-59
2023/01/21 02:45:48;;;;;;;81.15;31.80;;;-2.10;99.90;;;;;;5011377;28;20517;-57
2023/01/21 02:48:22;;;;;;;91.47;32.13;;;-2.10;99.90;;;;;;5012118;28;20513;-57
2023/01/21 02:50:53;;;;;;;90.97;33.10;;;-2.10;99.90;;;;;;5012132;28;20070;-59
2023/01/21 02:53:22;;;;;;;81.90;31.67;;;-2.10;99.90;;;;;;5017067;28;20034;-57
2023/01/21 02:55:47;;;;;;;87.75;31.30;;;-2.10;99.90;;;;;;5010809;28;20026;-59
2023/01/21 02:58:17;;;;;;;82.82;30.60;;;-2.10;99.90;;;;;;5006686;28;20136;-59
2023/01/21 03:01:02;;;;;;;72.28;28.42;;;-2.00;99.90;;;;;;5005668;28;20604;-58
2023/01/21 03:03:51;;;;;;;77.82;28.50;;;-2.00;99.90;;;;;;5004405;28;20033;-59
2023/01/21 03:06:19;;;;;;;80.90;31.00;;;-2.00;99.90;;;;;;4996232;28;20027;-57
2023/01/21 03:08:52;;;;;;;74.60;28.55;;;-2.00;99.90;;;;;;5004779;28;21257;-59
2023/01/21 03:11:19;;;;;;;67.30;29.73;;;-1.90;99.90;;;;;;5013565;28;20030;-58
2023/01/21 03:16:55;;;;;;;70.70;27.98;;;-2.00;99.90;;;;;;5010944;28;20645;-58
2023/01/21 03:19:34;;;;;;;64.70;26.05;;;-2.00;99.90;;;;;;5010239;28;20037;-58
2023/01/21 03:22:07;;;;;;;58.60;26.00;;;-1.90;99.90;;;;;;5015195;28;20044;-58
2023/01/21 03:24:34;;;;;;;55.92;23.77;;;-1.90;99.90;;;;;;5014713;28;20034;-59
2023/01/21 03:27:01;;;;;;;65.82;27.05;;;-1.90;99.90;;;;;;5007441;28;20067;-59
2023/01/21 03:29:29;;;;;;;60.58;26.30;;;-1.80;99.90;;;;;;5012831;28;20043;-58
2023/01/21 03:32:02;;;;;;;60.58;26.52;;;-1.80;99.90;;;;;;5012764;28;20077;-58
2023/01/21 03:34:31;;;;;;;57.10;25.30;;;-1.80;99.90;;;;;;5013374;28;20026;-58
2023/01/21 03:37:08;;;;;;;72.85;27.58;;;-1.80;99.90;;;;;;5012094;28;20377;-59
2023/01/21 03:39:43;;;;;;;60.08;26.15;;;-1.70;99.90;;;;;;5011679;28;20026;-59
2023/01/21 03:42:09;;;;;;;46.13;22.35;;;-1.70;99.90;;;;;;5008756;28;20034;-59
2023/01/21 03:44:35;;;;;;;47.78;21.13;;;-1.70;99.90;;;;;;5010006;28;20018;-58
2023/01/21 03:47:08;;;;;;;50.08;22.20;;;-1.70;99.90;;;;;;5006269;28;20056;-58
2023/01/21 03:49:39;;;;;;;45.35;22.08;;;-1.60;99.90;;;;;;5003193;28;20026;-59
2023/01/21 03:52:07;;;;;;;71.88;26.05;;;-1.50;99.90;;;;;;5013755;28;20011;-57
2023/01/21 03:54:33;;;;;;;69.93;28.13;;;-1.40;99.90;;;;;;5010727;28;20017;-58
2023/01/21 03:56:58;;;;;;;55.10;26.80;;;-1.40;99.90;;;;;;5009601;28;20028;-59
2023/01/21 03:59:24;;;;;;;63.55;27.58;;;-1.40;99.90;;;;;;5009779;28;20030;-58
2023/01/21 04:01:50;;;;;;;52.60;24.25;;;-1.40;99.90;;;;;;5008017;28;20361;-58
2023/01/21 04:04:15;;;;;;;51.15;25.13;;;-1.40;99.90;;;;;;5011129;28;20032;-58
2023/01/21 04:06:41;;;;;;;57.72;25.00;;;-1.40;99.90;;;;;;5012798;28;20112;-58
2023/01/21 04:09:06;;;;;;;55.60;25.02;;;-1.40;99.90;;;;;;5013480;28;20416;-59
2023/01/21 04:11:33;;;;;;;51.13;25.48;;;-1.40;99.90;;;;;;5011896;28;20026;-59
2023/01/21 04:13:58;;;;;;;59.67;25.58;;;-1.40;99.90;;;;;;5009268;28;20026;-59
2023/01/21 04:16:24;;;;;;;60.70;25.33;;;-1.40;99.90;;;;;;5005574;28;20429;-57
2023/01/21 04:18:50;;;;;;;58.15;26.00;;;-1.40;99.90;;;;;;5012232;28;20049;-58
2023/01/21 04:21:16;;;;;;;55.35;24.60;;;-1.40;99.90;;;;;;5019885;28;20033;-59
2023/01/21 04:23:41;;;;;;;64.97;25.15;;;-1.40;99.90;;;;;;5010998;28;20034;-60
2023/01/21 04:26:07;;;;;;;55.20;24.73;;;-1.40;99.90;;;;;;5003417;28;20717;-59
2023/01/21 04:28:33;;;;;;;55.28;24.25;;;-1.30;99.90;;;;;;5011953;28;20076;-58
2023/01/21 04:30:59;;;;;;;56.72;24.05;;;-1.30;99.90;;;;;;5015003;28;20029;-58
2023/01/21 04:33:25;;;;;;;51.33;24.42;;;-1.30;99.90;;;;;;5017629;28;20493;-58
2023/01/21 04:35:50;;;;;;;49.92;25.20;;;-1.30;99.90;;;;;;5008045;28;20476;-59
2023/01/21 04:38:17;;;;;;;58.33;23.90;;;-1.30;99.90;;;;;;5006616;28;20116;-59
2023/01/21 04:40:42;;;;;;;53.90;23.65;;;-1.30;99.90;;;;;;5004878;28;20022;-59
2023/01/21 04:43:08;;;;;;;55.05;24.52;;;-1.30;99.90;;;;;;5001107;28;20191;-59
2023/01/21 04:45:34;;;;;;;57.67;26.63;;;-1.30;99.90;;;;;;5011863;28;20465;-57
2023/01/21 04:47:59;;;;;;;55.55;24.42;;;-1.30;99.90;;;;;;5014629;28;20022;-58
2023/01/21 04:50:25;;;;;;;48.05;22.02;;;-1.30;99.90;;;;;;5009776;28;20027;-58
2023/01/21 04:52:51;;;;;;;43.22;18.70;;;-1.20;99.90;;;;;;5005402;28;20105;-58
2023/01/21 04:55:16;;;;;;;62.13;23.95;;;-1.20;99.90;;;;;;5008833;28;20022;-56
2023/01/21 04:57:42;;;;;;;53.53;22.15;;;-1.10;99.90;;;;;;5012447;28;20402;-59
2023/01/21 05:00:08;;;;;;;57.15;24.88;;;-1.10;99.90;;;;;;5007461;28;20029;-58
2023/01/21 05:02:34;;;;;;;64.43;22.65;;;-1.10;99.90;;;;;;5006859;28;20057;-57
2023/01/21 05:04:59;;;;;;;53.47;23.83;;;-1.10;99.90;;;;;;5005147;28;20446;-58
2023/01/21 05:07:25;;;;;;;54.67;23.23;;;-1.10;99.90;;;;;;5009098;28;20018;-58
2023/01/21 05:09:51;;;;;;;51.92;22.83;;;-1.10;99.90;;;;;;5015509;28;20018;-58
2023/01/21 05:12:16;;;;;;;60.35;22.60;;;-1.10;99.90;;;;;;5014476;28;20103;-59
2023/01/21 05:14:42;;;;;;;55.83;25.02;;;-1.10;99.90;;;;;;5008618;28;20076;-59
2023/01/21 05:17:08;;;;;;;51.88;23.23;;;-1.10;99.90;;;;;;5003212;28;20417;-58
2023/01/21 05:19:33;;;;;;;57.20;23.83;;;-1.10;99.90;;;;;;5008223;28;20465;-59
2023/01/21 05:21:59;;;;;;;47.22;19.38;;;-1.10;99.90;;;;;;5008501;28;20389;-58
2023/01/21 05:24:25;;;;;;;40.13;17.02;;;-1.10;99.90;;;;;;5008233;28;20041;-58
2023/01/21 05:26:50;;;;;;;43.58;18.08;;;-1.10;99.90;;;;;;5003764;28;20544;-58
2023/01/21 05:29:16;;;;;;;29.05;13.23;;;-1.00;99.90;;;;;;5005184;28;20029;-57
2023/01/21 05:31:42;;;;;;;33.90;13.98;;;-0.90;99.90;;;;;;5010424;28;20024;-59
2023/01/21 05:34:11;;;;;;;33.88;14.38;;;-0.80;99.90;;;;;;5014670;28;20013;-58
2023/01/21 05:36:38;;;;;;;26.70;13.60;;;-0.60;99.90;;;;;;5014579;28;20019;-58
2023/01/21 05:39:04;;;;;;;29.40;13.52;;;-0.60;99.90;;;;;;5013615;28;20033;-58
2023/01/21 05:41:30;;;;;;;28.02;13.00;;;-0.50;99.90;;;;;;5011006;28;20533;-58
2023/01/21 05:43:55;;;;;;;28.25;14.65;;;-0.50;99.90;;;;;;5007817;28;20485;-58
2023/01/21 05:46:21;;;;;;;29.83;13.27;;;-0.50;99.90;;;;;;5011804;28;20090;-58
2023/01/21 05:48:47;;;;;;;31.10;14.57;;;-0.50;99.90;;;;;;5014147;28;20026;-58
2023/01/21 05:51:13;;;;;;;25.25;13.45;;;-0.50;99.90;;;;;;5010295;28;20393;-58
2023/01/21 05:53:38;;;;;;;35.50;13.65;;;-0.60;99.90;;;;;;5005278;28;20038;-59
2023/01/21 05:56:04;;;;;;;23.50;13.02;;;-0.60;99.90;;;;;;5002495;28;20087;-58
2023/01/21 05:58:30;;;;;;;24.20;13.50;;;-0.50;99.90;;;;;;5005338;28;20536;-59
2023/01/21 06:00:57;;;;;;;23.95;12.93;;;-0.50;99.90;;;;;;5006293;28;20025;-58
2023/01/21 06:03:23;;;;;;;22.92;12.20;;;-0.50;99.90;;;;;;5009902;28;20805;-59
2023/01/21 06:05:49;;;;;;;29.15;12.80;;;-0.50;99.90;;;;;;5013404;28;20038;-58
2023/01/21 06:08:16;;;;;;;27.33;14.07;;;-0.50;99.90;;;;;;5015473;28;20539;-58
2023/01/21 06:10:41;;;;;;;25.40;10.93;;;-0.50;99.90;;;;;;5017657;28;20055;-58
2023/01/21 06:13:11;;;;;;;31.02;13.77;;;-0.50;99.90;;;;;;5015645;28;20366;-58
2023/01/21 06:15:36;;;;;;;28.70;11.20;;;-0.50;99.90;;;;;;5014124;28;20037;-57
2023/01/21 06:18:02;;;;;;;29.02;12.07;;;-0.50;99.90;;;;;;5013370;28;20034;-57
2023/01/21 06:20:29;;;;;;;21.77;8.90;;;-0.50;99.90;;;;;;5009933;28;20025;-57
2023/01/21 06:22:55;;;;;;;24.80;12.60;;;-0.50;99.90;;;;;;5017673;28;20485;-57
2023/01/21 06:25:22;;;;;;;28.38;14.52;;;-0.50;99.90;;;;;;5013126;28;20191;-58
2023/01/21 06:27:47;;;;;;;23.33;13.20;;;-0.50;99.90;;;;;;5011750;28;20044;-58
2023/01/21 06:30:13;;;;;;;23.35;12.70;;;-0.50;99.90;;;;;;5012574;28;20569;-57
2023/01/21 06:32:39;;;;;;;28.88;13.63;;;-0.50;99.90;;;;;;5012990;28;20026;-58
2023/01/21 06:35:05;;;;;;;22.85;10.15;;;-0.50;99.90;;;;;;5015985;28;20112;-58
2023/01/21 06:37:30;;;;;;;23.08;12.73;;;-0.50;99.90;;;;;;5011677;28;20471;-58
2023/01/21 06:39:56;;;;;;;23.35;13.02;;;-0.50;99.90;;;;;;5008302;28;20025;-59
2023/01/21 06:42:22;;;;;;;30.23;15.52;;;-0.50;99.90;;;;;;5004842;28;20034;-59
2023/01/21 06:44:47;;;;;;;23.13;12.02;;;-0.50;99.90;;;;;;5011316;28;20068;-57
2023/01/21 06:47:13;;;;;;;12.48;8.05;;;-0.50;99.90;;;;;;5012569;28;20944;-58
2023/01/21 06:49:39;;;;;;;29.70;14.27;;;-0.60;99.90;;;;;;5012777;28;20700;-58
2023/01/21 06:52:05;;;;;;;23.48;10.80;;;-0.60;99.90;;;;;;5012487;28;20619;-58
2023/01/21 06:54:31;;;;;;;32.97;16.38;;;-0.60;99.90;;;;;;5015685;28;20029;-57
2023/01/21 06:56:57;;;;;;;25.30;11.60;;;-0.60;99.90;;;;;;5014027;28;20371;-58
2023/01/21 06:59:22;;;;;;;28.00;12.27;;;-0.60;99.90;;;;;;5015529;28;20509;-57
2023/01/21 07:01:48;;;;;;;26.65;13.20;;;-0.60;99.90;;;;;;5017539;28;20033;-58
2023/01/21 07:04:14;;;;;;;21.15;10.32;;;-0.60;99.90;;;;;;5015795;28;20010;-56
2023/01/21 07:06:39;;;;;;;20.40;10.73;;;-0.60;99.90;;;;;;5008390;28;20034;-58
2023/01/21 07:09:06;;;;;;;23.42;10.30;;;-0.60;99.90;;;;;;5012701;28;20494;-58
2023/01/21 07:11:32;;;;;;;34.95;15.20;;;-0.70;99.90;;;;;;5011939;28;20030;-58
2023/01/21 07:13:58;;;;;;;30.52;15.57;;;-0.70;99.90;;;;;;5014349;28;20017;-57
2023/01/21 07:16:24;;;;;;;35.47;14.27;;;-0.70;99.90;;;;;;5018750;28;20029;-59
2023/01/21 07:18:49;;;;;;;31.15;13.18;;;-0.70;99.90;;;;;;5006247;28;20038;-58
2023/01/21 07:21:15;;;;;;;33.63;14.98;;;-0.70;99.90;;;;;;5003222;28;20057;-59
2023/01/21 07:23:41;;;;;;;18.30;8.77;;;-0.70;99.90;;;;;;5009299;28;20505;-59
2023/01/21 07:26:07;;;;;;;30.30;14.05;;;-0.70;99.90;;;;;;5019529;28;20030;-58
2023/01/21 07:28:32;;;;;;;28.95;12.50;;;-0.70;99.90;;;;;;5010908;28;20028;-58
2023/01/21 07:30:59;;;;;;;26.23;13.15;;;-0.70;99.90;;;;;;5014710;28;20049;-58
2023/01/21 07:33:24;;;;;;;11.35;6.47;;;-0.70;99.90;;;;;;5008394;28;20037;-59
2023/01/21 07:35:50;;;;;;;29.48;14.18;;;-0.60;99.90;;;;;;5006589;28;20518;-59
2023/01/21 07:38:16;;;;;;;22.55;11.05;;;-0.70;99.90;;;;;;5012517;28;20028;-57
2023/01/21 07:40:41;;;;;;;15.57;8.82;;;-0.70;99.90;;;;;;5010730;28;20017;-57
2023/01/21 07:43:08;;;;;;;21.42;11.27;;;-0.70;99.90;;;;;;5011400;28;20475;-58
2023/01/21 07:45:34;;;;;;;19.80;10.55;;;-0.80;99.90;;;;;;5011978;28;20052;-55
2023/01/21 07:48:00;;;;;;;29.88;12.18;;;-0.80;99.90;;;;;;5014916;28;20022;-58
2023/01/21 07:50:26;;;;;;;21.95;11.75;;;-0.90;99.90;;;;;;5011631;28;20092;-58
2023/01/21 07:52:53;;;;;;;26.15;12.60;;;-0.90;99.90;;;;;;5010290;28;20037;-57
2023/01/21 07:55:19;;;;;;;20.35;9.18;;;-0.90;99.90;;;;;;5008954;28;20029;-58
2023/01/21 07:57:45;;;;;;;18.38;10.25;;;-1.00;99.90;;;;;;5010151;28;20746;-58
2023/01/21 08:00:11;;;;;;;15.82;8.30;;;-1.00;99.90;;;;;;5014283;28;20029;-58
2023/01/21 08:02:37;;;;;;;21.58;11.55;;;-1.00;99.90;;;;;;5010088;28;20625;-58
2023/01/21 08:05:03;;;;;;;17.55;9.73;;;-1.00;99.90;;;;;;5012940;28;20075;-58
2023/01/21 08:07:29;;;;;;;24.98;10.32;;;-1.00;99.90;;;;;;5008068;28;20119;-57
2023/01/21 08:09:54;;;;;;;8.30;4.93;;;-1.00;99.90;;;;;;5012100;28;20014;-57
2023/01/21 08:12:20;;;;;;;19.50;9.43;;;-1.10;99.90;;;;;;5013158;28;20125;-58
2023/01/21 08:14:45;;;;;;;14.40;7.13;;;-1.10;99.90;;;;;;5011161;28;20025;-59
2023/01/21 08:17:11;;;;;;;9.88;6.53;;;-1.20;99.90;;;;;;5008767;28;20018;-58
2023/01/21 08:19:37;;;;;;;14.18;7.43;;;-1.20;99.90;;;;;;5007076;28;20418;-58
2023/01/21 08:22:02;;;;;;;22.15;10.70;;;-1.20;99.90;;;;;;5014747;28;20024;-59
2023/01/21 08:24:28;;;;;;;20.85;9.80;;;-1.30;99.90;;;;;;5015202;28;20030;-58
2023/01/21 08:26:57;;;;;;;18.45;9.00;;;-1.30;99.90;;;;;;5014798;28;20071;-58
2023/01/21 08:29:23;;;;;;;18.02;8.45;;;-1.20;99.90;;;;;;5011316;28;20498;-57
2023/01/21 08:31:48;;;;;;;15.20;9.75;;;-1.20;99.90;;;;;;5010103;28;20564;-60
2023/01/21 08:34:14;;;;;;;19.95;9.60;;;-1.20;99.90;;;;;;5010589;28;20022;-58
2023/01/21 08:36:40;;;;;;;17.88;10.05;;;-1.20;99.90;;;;;;5005523;28;20042;-59
2023/01/21 08:39:06;;;;;;;21.10;10.35;;;-1.20;99.90;;;;;;5005922;28;20029;-57
2023/01/21 08:41:32;;;;;;;27.52;12.52;;;-1.20;99.90;;;;;;5010991;28;20030;-58
2023/01/21 08:43:57;;;;;;;26.38;12.63;;;-1.20;99.90;;;;;;5010467;28;20031;-58
2023/01/21 08:46:23;;;;;;;21.20;9.75;;;-1.20;99.90;;;;;;5007123;28;20038;-57
2023/01/21 08:48:50;;;;;;;21.27;9.80;;;-1.20;99.90;;;;;;5006692;28;20041;-57
2023/01/21 08:51:16;;;;;;;19.30;9.88;;;-1.20;99.90;;;;;;5007247;28;20042;-57
2023/01/21 08:53:41;;;;;;;19.45;10.13;;;-1.20;99.90;;;;;;5016228;28;20645;-57
2023/01/21 08:56:07;;;;;;;17.40;9.05;;;-1.20;99.90;;;;;;5016372;28;20053;-58
2023/01/21 08:58:33;;;;;;;55.67;19.67;;;-1.30;99.90;;;;;;5012037;28;20041;-59
2023/01/21 09:01:05;;;;;;;17.55;8.13;;;-1.30;99.90;;;;;;5008664;28;20048;-57
2023/01/21 09:03:30;;;;;;;19.15;12.02;;;-1.20;99.90;;;;;;5007955;28;20038;-57
2023/01/21 09:06:00;;;;;;;14.38;10.23;;;-1.10;99.90;;;;;;5007305;28;20458;-57
2023/01/21 09:08:26;;;;;;;13.60;7.38;;;-1.20;99.90;;;;;;5004176;28;20037;-59
2023/01/21 09:11:02;;;;;;;11.90;7.28;;;-1.10;99.90;;;;;;5004568;28;20113;-58
2023/01/21 09:13:36;;;;;;;13.38;7.97;;;-1.00;99.90;;;;;;5020629;28;20048;-58
2023/01/21 09:16:06;;;;;;;17.95;10.65;;;-1.00;99.90;;;;;;5011506;28;20100;-57
2023/01/21 09:18:31;;;;;;;24.35;13.27;;;-1.00;99.90;;;;;;5009119;28;20564;-59
2023/01/21 09:21:04;;;;;;;15.55;9.25;;;-1.00;99.90;;;;;;5006266;28;20029;-60
2023/01/21 09:23:33;;;;;;;33.30;18.38;;;-1.00;99.90;;;;;;5010388;28;20041;-58
2023/01/21 09:26:15;;;;;;;19.25;11.38;;;-0.90;99.90;;;;;;5012820;28;20033;-58
2023/01/21 09:28:42;;;;;;;12.77;8.82;;;-0.90;99.90;;;;;;5008887;28;20032;-58
2023/01/21 09:31:14;;;;;;;13.07;7.72;;;-0.80;99.90;;;;;;5008488;28;20048;-56
2023/01/21 09:33:42;;;;;;;15.50;9.35;;;-0.80;99.90;;;;;;5002560;28;20026;-58
2023/01/21 09:36:12;;;;;;;12.77;8.00;;;-0.80;99.90;;;;;;5004031;28;20100;-58
2023/01/21 09:38:41;;;;;;;13.65;8.15;;;-0.80;99.90;;;;;;5006324;28;20053;-58
2023/01/21 09:41:29;;;;;;;11.73;7.25;;;-0.80;99.90;;;;;;5011804;28;20022;-58
2023/01/21 09:44:16;;;;;;;10.82;7.05;;;-0.70;99.90;;;;;;5012532;28;20061;-58
2023/01/21 09:47:00;;;;;;;11.73;8.18;;;-0.70;99.90;;;;;;5013018;28;20048;-57
2023/01/21 09:49:27;;;;;;;9.05;5.43;;;-0.70;99.90;;;;;;5010325;28;20022;-58
2023/01/21 09:52:01;;;;;;;11.43;6.50;;;-0.70;99.90;;;;;;5009184;28;20117;-58
2023/01/21 09:54:32;;;;;;;14.10;8.57;;;-0.60;99.90;;;;;;5011538;28;20056;-57
2023/01/21 09:57:19;;;;;;;9.93;7.50;;;-0.60;99.90;;;;;;5011402;28;20368;-57
2023/01/21 10:00:00;;;;;;;10.70;6.20;;;-0.50;99.90;;;;;;5014862;28;20021;-58
2023/01/21 10:02:44;;;;;;;8.65;5.88;;;-0.50;99.90;;;;;;5016196;28;20022;-58
2023/01/21 10:05:23;;;;;;;9.55;5.78;;;-0.40;99.90;;;;;;5012042;28;20041;-60
2023/01/21 10:08:20;;;;;;;5.93;4.10;;;-0.40;99.90;;;;;;5011560;28;20083;-59
2023/01/21 10:11:05;;;;;;;11.00;5.43;;;-0.40;99.90;;;;;;5010261;28;20131;-58
2023/01/21 10:13:43;;;;;;;8.50;5.57;;;-0.40;99.90;;;;;;5011823;28;20121;-57
2023/01/21 10:16:14;;;;;;;8.85;4.50;;;-0.40;99.90;;;;;;5005212;28;20109;-58
2023/01/21 10:18:44;;;;;;;9.65;5.57;;;-0.40;99.90;;;;;;5002643;28;20117;-60
2023/01/21 10:21:18;;;;;;;7.72;4.82;;;-0.40;99.90;;;;;;5010082;28;20025;-59
2023/01/21 10:23:49;;;;;;;8.88;5.07;;;-0.40;99.90;;;;;;5012809;28;20038;-57
2023/01/21 10:26:14;;;;;;;;;;;-0.40;99.90;;;;;;5009324;28;20051;-57
2023/01/21 10:28:49;;;;;;;9.82;5.95;;;-0.40;99.90;;;;;;5007656;28;19917;-59
2023/01/21 10:31:19;;;;;;;7.85;6.18;;;-0.30;99.90;;;;;;5015902;28;20136;-58
2023/01/21 10:33:44;;;;;;;10.07;6.57;;;-0.30;99.90;;;;;;5011781;28;20028;-57
2023/01/21 10:36:29;;;;;;;11.82;6.75;;;-0.30;99.90;;;;;;5011991;28;20026;-58
2023/01/21 10:39:06;;;;;;;11.40;7.13;;;-0.30;99.90;;;;;;5008625;28;20125;-57
2023/01/21 10:41:53;;;;;;;9.80;7.22;;;-0.20;99.90;;;;;;5013228;28;20040;-58
2023/01/21 10:44:40;;;;;;;10.40;5.97;;;-0.30;99.90;;;;;;5011242;28;20044;-58
2023/01/21 10:47:13;;;;;;;11.68;7.40;;;-0.30;99.90;;;;;;5010638;28;20615;-57
2023/01/21 10:49:51;;;;;;;8.80;6.15;;;-0.40;99.90;;;;;;5011135;28;20418;-57
2023/01/21 10:52:40;;;;;;;11.10;6.63;;;-0.30;99.90;;;;;;5012136;28;20029;-57
2023/01/21 10:55:32;;;;;;;10.18;7.68;;;-0.30;99.90;;;;;;5012003;28;20057;-58
2023/01/21 10:58:10;;;;;;;9.68;6.53;;;-0.30;99.90;;;;;;4991935;28;20037;-58
2023/01/21 11:00:41;;;;;;;13.02;7.30;;;-0.30;99.90;;;;;;5009231;28;20022;-57
2023/01/21 11:03:14;;;;;;;10.10;7.30;;;-0.20;99.90;;;;;;5012479;28;20026;-59
2023/01/21 11:05:40;;;;;;;10.23;8.02;;;-0.20;99.90;;;;;;5009420;28;20042;-58
2023/01/21 11:08:12;;;;;;;9.07;6.07;;;-0.10;99.90;;;;;;5018138;28;20048;-57
2023/01/21 11:10:38;;;;;;;23.52;13.25;;;-0.10;99.90;;;;;;5014124;28;20018;-58
2023/01/21 11:13:11;;;;;;;15.55;11.00;;;-0.10;99.90;;;;;;5012088;28;20018;-58
2023/01/21 11:15:43;;;;;;;10.95;8.02;;;-0.10;99.90;;;;;;5011308;28;20140;-57
2023/01/21 11:18:30;;;;;;;10.93;7.68;;;-0.10;99.90;;;;;;5009873;28;20288;-57
2023/01/21 11:21:07;;;;;;;12.48;8.13;;;-0.10;99.90;;;;;;5014171;28;20485;-59
2023/01/21 11:23:34;;;;;;;9.95;6.70;;;-0.10;99.90;;;;;;5010179;28;20053;-58
2023/01/21 11:26:05;;;;;;;10.48;7.95;;;-0.10;99.90;;;;;;5009114;28;20058;-59
2023/01/21 11:28:31;;;;;;;12.00;6.13;;;-0.10;99.90;;;;;;5009003;28;20030;-58
2023/01/21 11:31:09;;;;;;;9.30;6.10;;;0.00;99.90;;;;;;5000549;28;20044;-59
2023/01/21 11:33:36;;;;;;;12.20;6.65;;;0.00;99.90;;;;;;5002437;28;20623;-57
2023/01/21 11:36:16;;;;;;;12.30;6.82;;;-0.10;99.90;;;;;;5004580;28;20035;-58
2023/01/21 11:38:43;;;;;;;11.83;7.20;;;-0.10;99.90;;;;;;5012091;28;20037;-58
2023/01/21 11:41:08;;;;;;;15.40;8.30;;;-0.10;99.90;;;;;;5014939;28;20030;-59
2023/01/21 11:43:43;;;;;;;11.52;8.75;;;-0.10;99.90;;;;;;5012472;28;20350;-58
2023/01/21 11:46:32;;;;;;;13.50;10.25;;;0.00;99.90;;;;;;5012738;28;20053;-57
2023/01/21 11:49:07;;;;;;;11.40;7.93;;;0.00;99.90;;;;;;5012085;28;20030;-59
2023/01/21 11:51:40;;;;;;;14.45;10.27;;;0.00;99.90;;;;;;5011391;28;20034;-59
2023/01/21 11:54:17;;;;;;;14.02;8.43;;;0.00;99.90;;;;;;5009771;28;20082;-58
2023/01/21 11:56:54;;;;;;;12.23;7.72;;;-0.10;99.90;;;;;;5008884;28;20842;-57
2023/01/21 11:59:37;;;;;;;13.68;6.97;;;-0.10;99.90;;;;;;5012005;28;20057;-59
2023/01/21 12:02:29;;;;;;;16.88;9.27;;;-0.10;99.90;;;;;;5015396;28;20041;-57
2023/01/21 12:05:00;;;;;;;13.43;9.23;;;0.00;99.90;;;;;;5015451;28;20554;-57
2023/01/21 12:07:27;;;;;;;;;;;0.10;99.90;;;;;;5010031;28;20019;-59
2023/01/21 12:10:18;;;;;;;9.20;5.07;;;0.10;99.90;;;;;;5012003;28;19944;-58
2023/01/21 12:13:12;;;;;;;10.98;8.43;;;0.10;99.90;;;;;;5002168;28;20128;-58
2023/01/21 12:15:56;;;;;;;10.63;7.22;;;0.10;99.90;;;;;;5004213;28;20030;-57
2023/01/21 12:18:57;;;;;;;10.25;6.97;;;0.00;99.90;;;;;;5006331;28;20118;-58
2023/01/21 12:21:56;;;;;;;10.52;7.15;;;0.00;99.90;;;;;;5002188;28;20164;-58
2023/01/21 12:24:50;;;;;;;10.43;7.13;;;0.00;99.90;;;;;;5005701;28;20065;-57
2023/01/21 12:27:43;;;;;;;9.73;6.43;;;0.00;99.90;;;;;;5008572;28;20033;-58
2023/01/21 12:30:21;;;;;;;11.15;6.88;;;0.00;99.90;;;;;;5012463;28;20022;-58
2023/01/21 12:33:17;;;;;;;8.40;6.43;;;0.10;99.90;;;;;;5011262;28;20028;-58
2023/01/21 12:35:52;;;;;;;10.10;5.75;;;0.10;99.90;;;;;;5010531;28;20034;-57
2023/01/21 12:38:24;;;;;;;8.23;5.55;;;0.10;99.90;;;;;;5009386;28;20042;-58
2023/01/21 12:40:58;;;;;;;8.93;5.70;;;0.20;99.90;;;;;;5013524;28;20030;-58
2023/01/21 12:43:31;;;;;;;8.23;5.70;;;0.20;99.90;;;;;;5005669;28;20026;-57
2023/01/21 12:46:09;;;;;;;8.38;5.85;;;0.20;99.90;;;;;;5001856;28;20046;-58
2023/01/21 12:48:43;;;;;;;6.97;4.65;;;0.20;99.90;;;;;;5011330;28;20034;-57
2023/01/21 12:51:36;;;;;;;8.50;5.50;;;0.20;99.90;;;;;;5011295;28;20026;-59
2023/01/21 12:54:26;;;;;;;31.58;13.68;;;0.20;99.90;;;;;;5011646;28;20121;-59